createdAt,value
2023-05-03T00:00:19.152Z,15.06
2023-05-03T00:02:46.863Z,15.05
2023-05-03T00:05:15.449Z,14.99
2023-05-03T00:07:44.232Z,15.02
2023-05-03T00:10:21.529Z,15.06
2023-05-03T00:12:49.116Z,15.03
2023-05-03T00:15:16.834Z,14.99
2023-05-03T00:17:44.616Z,14.97
2023-05-03T00:20:12.504Z,14.89
2023-05-03T00:22:40.031Z,14.81
2023-05-03T00:25:10.767Z,14.84
2023-05-03T00:27:38.723Z,14.84
2023-05-03T00:30:06.964Z,14.89
2023-05-03T00:32:34.632Z,14.98
2023-05-03T00:35:02.378Z,15.03
2023-05-03T00:37:31.601Z,15.10
2023-05-03T00:39:59.388Z,15.15
2023-05-03T00:42:26.979Z,15.22
2023-05-03T00:44:56.186Z,15.32
2023-05-03T00:47:24.117Z,15.36
2023-05-03T00:49:52.042Z,15.41
2023-05-03T00:52:19.979Z,15.45
2023-05-03T00:54:47.653Z,15.42
2023-05-03T00:57:15.599Z,15.42
2023-05-03T00:59:43.279Z,15.45
2023-05-03T01:02:11.044Z,15.46
2023-05-03T01:04:39.693Z,15.48
2023-05-03T01:07:24.161Z,15.64
2023-05-03T01:10:11.009Z,15.81
2023-05-03T01:13:00.725Z,15.82
2023-05-03T01:15:42.203Z,15.86
2023-05-03T01:18:19.079Z,15.81
2023-05-03T01:20:49.778Z,15.83
2023-05-03T01:23:52.512Z,16.02
2023-05-03T01:26:22.124Z,15.98
2023-05-03T01:28:51.759Z,16.00
2023-05-03T01:31:31.377Z,16.11
2023-05-03T01:34:04.574Z,16.22
2023-05-03T01:36:32.852Z,16.16
2023-05-03T01:39:07.099Z,16.30
2023-05-03T01:41:39.361Z,16.29
2023-05-03T01:44:07.911Z,16.36
2023-05-03T01:46:35.466Z,16.41
2023-05-03T01:49:02.999Z,16.50
2023-05-03T01:51:31.418Z,16.54
2023-05-03T01:53:58.955Z,16.66
2023-05-03T01:56:26.610Z,16.73
2023-05-03T01:58:54.515Z,16.83
2023-05-03T02:01:22.108Z,16.87
2023-05-03T02:03:49.641Z,16.97
2023-05-03T02:06:17.703Z,17.03
2023-05-03T02:08:45.351Z,17.08
2023-05-03T02:11:13.056Z,17.13
2023-05-03T02:14:01.482Z,17.22
2023-05-03T02:16:29.552Z,17.32
2023-05-03T02:18:59.875Z,17.39
2023-05-03T02:21:27.672Z,17.50
2023-05-03T02:23:55.676Z,17.61
2023-05-03T02:26:23.896Z,17.68
2023-05-03T02:28:51.365Z,17.79
2023-05-03T02:31:21.257Z,17.92
2023-05-03T02:33:48.885Z,18.06
2023-05-03T02:36:17.159Z,18.24
2023-05-03T02:38:45.644Z,18.44
2023-05-03T02:41:13.324Z,18.96
2023-05-03T02:43:40.950Z,19.61
2023-05-03T02:46:08.609Z,20.15
2023-05-03T02:48:36.270Z,20.86
2023-05-03T02:51:03.996Z,21.48
2023-05-03T02:53:31.586Z,22.05
2023-05-03T02:56:03.193Z,22.66
2023-05-03T02:58:31.467Z,23.24
2023-05-03T03:01:01.707Z,23.73
2023-05-03T03:03:31.307Z,24.31
2023-05-03T03:05:59.095Z,24.90
2023-05-03T03:08:26.821Z,25.43
2023-05-03T03:10:58.720Z,25.83
2023-05-03T03:13:26.513Z,26.37
2023-05-03T03:15:54.156Z,26.94
2023-05-03T03:18:21.939Z,27.45
2023-05-03T03:20:49.450Z,27.92
2023-05-03T03:23:18.094Z,28.42
2023-05-03T03:25:45.706Z,28.74
2023-05-03T03:28:13.340Z,28.96
2023-05-03T03:30:41.181Z,29.21
2023-05-03T03:33:22.213Z,29.66
2023-05-03T03:35:53.799Z,30.23
2023-05-03T03:38:25.564Z,30.60
2023-05-03T03:40:59.437Z,30.90
2023-05-03T03:43:27.482Z,31.42
2023-05-03T03:45:55.410Z,31.81
2023-05-03T03:48:23.597Z,32.31
2023-05-03T03:50:51.703Z,32.78
2023-05-03T03:53:22.059Z,33.13
2023-05-03T03:55:49.585Z,33.48
2023-05-03T03:58:18.842Z,33.86
2023-05-03T04:00:47.315Z,34.20
2023-05-03T04:03:18.829Z,34.51
2023-05-03T04:05:47.461Z,34.83
2023-05-03T04:08:16.019Z,35.22
2023-05-03T04:10:44.563Z,35.53
2023-05-03T04:13:12.306Z,35.92
2023-05-03T04:15:41.119Z,36.26
2023-05-03T04:18:09.193Z,36.52
2023-05-03T04:20:39.538Z,36.82
2023-05-03T04:23:11.147Z,37.07
2023-05-03T04:25:39.150Z,37.42
2023-05-03T04:28:14.169Z,37.76
2023-05-03T04:30:47.211Z,37.90
2023-05-03T04:33:17.967Z,38.28
2023-05-03T04:35:49.687Z,38.78
2023-05-03T04:38:19.193Z,39.05
2023-05-03T04:40:46.959Z,39.38
2023-05-03T04:43:14.618Z,39.68
2023-05-03T04:45:45.781Z,39.88
2023-05-03T04:48:18.520Z,40.16
2023-05-03T04:50:46.432Z,40.45
2023-05-03T04:53:16.513Z,40.71
2023-05-03T04:55:47.910Z,40.88
2023-05-03T04:58:15.829Z,41.20
2023-05-03T05:00:43.626Z,41.50
2023-05-03T05:03:16.912Z,41.74
2023-05-03T05:05:44.964Z,41.97
2023-05-03T05:08:12.890Z,42.03
2023-05-03T05:10:48.150Z,42.29
2023-05-03T05:13:20.026Z,42.44
2023-05-03T05:15:47.567Z,42.69
2023-05-03T05:18:15.230Z,42.99
2023-05-03T05:20:43.438Z,43.26
2023-05-03T05:23:11.912Z,43.62
2023-05-03T05:25:42.558Z,43.81
2023-05-03T05:28:11.521Z,44.01
2023-05-03T05:30:40.540Z,44.14
2023-05-03T05:33:08.623Z,44.43
2023-05-03T05:35:36.736Z,44.56
2023-05-03T05:38:05.403Z,44.84
2023-05-03T05:40:34.585Z,44.96
2023-05-03T05:43:02.587Z,45.12
2023-05-03T05:45:34.879Z,45.21
2023-05-03T05:48:04.948Z,45.62
2023-05-03T05:50:33.515Z,45.80
2023-05-03T05:53:06.830Z,45.97
2023-05-03T05:55:37.705Z,46.20
2023-05-03T05:58:06.232Z,46.51
2023-05-03T06:00:40.661Z,46.50
2023-05-03T06:03:08.376Z,46.59
2023-05-03T06:05:36.079Z,46.72
2023-05-03T06:08:04.410Z,46.87
2023-05-03T06:10:32.013Z,46.93
2023-05-03T06:13:00.674Z,46.75
2023-05-03T06:15:29.157Z,46.48
2023-05-03T06:17:56.833Z,46.68
2023-05-03T06:20:24.733Z,46.76
2023-05-03T06:22:53.445Z,46.83
2023-05-03T06:25:21.662Z,46.89
2023-05-03T06:27:50.982Z,46.80
2023-05-03T06:30:23.945Z,46.65
2023-05-03T06:32:52.207Z,46.55
2023-05-03T06:35:22.204Z,46.85
2023-05-03T06:37:50.523Z,46.82
2023-05-03T06:40:18.609Z,46.91
2023-05-03T06:42:46.554Z,47.00
2023-05-03T06:45:22.726Z,46.82
2023-05-03T06:47:50.699Z,46.37
2023-05-03T06:50:20.382Z,46.30
2023-05-03T06:52:48.952Z,46.13
2023-05-03T06:55:17.483Z,45.94
2023-05-03T06:57:47.863Z,45.75
2023-05-03T07:00:16.198Z,45.67
2023-05-03T07:02:43.979Z,45.41
2023-05-03T07:05:11.829Z,44.71
2023-05-03T07:07:39.703Z,44.43
2023-05-03T07:10:07.834Z,44.34
2023-05-03T07:12:35.504Z,43.49
2023-05-03T07:15:03.123Z,43.39
2023-05-03T07:17:32.758Z,43.13
2023-05-03T07:20:00.606Z,42.63
2023-05-03T07:22:28.937Z,42.66
2023-05-03T07:24:59.246Z,42.64
2023-05-03T07:27:27.315Z,42.46
2023-05-03T07:29:55.057Z,41.93
2023-05-03T07:32:22.947Z,41.56
2023-05-03T07:34:50.778Z,41.07
2023-05-03T07:37:18.294Z,40.41
2023-05-03T07:39:45.977Z,39.20
2023-05-03T07:42:13.617Z,38.29
2023-05-03T07:44:41.483Z,37.72
2023-05-03T07:47:09.140Z,37.24
2023-05-03T07:49:38.410Z,36.15
2023-05-03T07:52:06.251Z,35.50
2023-05-03T07:54:33.922Z,34.82
2023-05-03T07:57:01.554Z,34.54
2023-05-03T07:59:29.287Z,34.19
2023-05-03T08:01:57.494Z,33.94
2023-05-03T08:04:26.866Z,33.95
2023-05-03T08:06:54.647Z,34.23
2023-05-03T08:09:22.821Z,34.18
2023-05-03T08:11:50.368Z,34.57
2023-05-03T08:14:18.041Z,34.92
2023-05-03T08:16:45.486Z,35.14
2023-05-03T08:19:13.109Z,35.19
2023-05-03T08:21:40.718Z,34.93
2023-05-03T08:24:10.407Z,34.08
2023-05-03T08:26:38.393Z,33.82
2023-05-03T08:29:06.018Z,34.07
2023-05-03T08:31:34.082Z,33.79
2023-05-03T08:34:01.893Z,34.07
2023-05-03T08:36:30.004Z,33.73
2023-05-03T08:38:57.656Z,32.59
2023-05-03T08:41:32.464Z,32.76
2023-05-03T08:44:01.324Z,32.32
2023-05-03T08:46:29.490Z,32.23
2023-05-03T08:48:57.900Z,32.60
2023-05-03T08:51:25.766Z,32.60
2023-05-03T08:53:53.286Z,32.71
2023-05-03T08:56:35.166Z,31.86
2023-05-03T08:59:08.221Z,31.75
2023-05-03T09:01:41.327Z,32.25
2023-05-03T09:04:11.187Z,31.68
2023-05-03T09:06:39.630Z,31.19
2023-05-03T09:09:09.060Z,31.16
2023-05-03T09:11:39.293Z,31.55
2023-05-03T09:14:10.340Z,32.08
2023-05-03T09:16:39.339Z,31.91
2023-05-03T09:19:12.776Z,32.07
2023-05-03T09:21:41.708Z,31.24
2023-05-03T09:24:21.365Z,30.95
2023-05-03T09:26:51.303Z,30.66
2023-05-03T09:29:37.146Z,30.89
2023-05-03T09:32:06.257Z,30.27
2023-05-03T09:34:35.688Z,29.95
2023-05-03T09:37:03.739Z,29.94
2023-05-03T09:39:31.746Z,29.77
2023-05-03T09:41:59.486Z,29.66
2023-05-03T09:44:54.273Z,30.09
2023-05-03T09:47:22.269Z,30.35
2023-05-03T09:49:49.754Z,30.37
2023-05-03T09:52:17.599Z,30.26
2023-05-03T09:54:46.314Z,29.46
2023-05-03T09:57:15.036Z,28.88
2023-05-03T09:59:46.362Z,28.99
2023-05-03T10:02:14.915Z,28.74
2023-05-03T10:04:48.070Z,29.62
2023-05-03T10:07:18.726Z,29.13
2023-05-03T10:09:48.333Z,28.94
2023-05-03T10:12:19.154Z,28.66
2023-05-03T10:14:53.306Z,28.69
2023-05-03T10:17:35.375Z,28.47
2023-05-03T10:20:30.579Z,28.29
2023-05-03T10:23:08.186Z,28.16
2023-05-03T10:25:37.892Z,27.94
2023-05-03T10:28:08.531Z,28.57
2023-05-03T10:30:38.750Z,28.60
2023-05-03T10:33:12.712Z,28.28
2023-05-03T10:35:42.717Z,27.99
2023-05-03T10:38:18.059Z,28.00
2023-05-03T10:40:45.635Z,28.54
2023-05-03T10:43:34.174Z,28.89
2023-05-03T10:46:03.693Z,28.83
2023-05-03T10:48:32.611Z,28.81
2023-05-03T10:51:29.280Z,28.54
2023-05-03T10:53:57.566Z,27.81
2023-05-03T10:56:25.448Z,27.92
2023-05-03T10:58:56.796Z,27.76
2023-05-03T11:01:27.420Z,27.83
2023-05-03T11:04:08.371Z,27.77
2023-05-03T11:06:46.288Z,27.27
2023-05-03T11:09:15.192Z,27.20
2023-05-03T11:11:43.727Z,27.15
2023-05-03T11:14:12.077Z,26.99
2023-05-03T11:16:48.225Z,27.22
2023-05-03T11:19:16.372Z,27.05
2023-05-03T11:21:44.880Z,27.25
2023-05-03T11:24:13.941Z,27.59
2023-05-03T11:26:41.831Z,27.51
2023-05-03T11:29:14.277Z,27.19
2023-05-03T11:31:43.583Z,27.04
2023-05-03T11:34:12.959Z,27.06
2023-05-03T11:36:42.485Z,26.87
2023-05-03T11:39:13.419Z,26.95
2023-05-03T11:41:42.618Z,26.73
2023-05-03T11:44:17.302Z,26.71
2023-05-03T11:46:47.340Z,26.67
2023-05-03T11:49:19.771Z,26.68
2023-05-03T11:51:51.537Z,26.52
2023-05-03T11:54:26.974Z,26.92
2023-05-03T11:56:59.892Z,27.26
2023-05-03T11:59:36.109Z,27.40
2023-05-03T12:02:06.205Z,26.99
2023-05-03T12:04:34.347Z,27.00
2023-05-03T12:07:03.645Z,26.89
2023-05-03T12:09:32.636Z,26.58
2023-05-03T12:12:02.688Z,26.47
2023-05-03T12:15:00.486Z,26.77
2023-05-03T12:17:44.186Z,26.83
2023-05-03T12:23:03.240Z,27.61
2023-05-03T12:25:34.015Z,27.64
2023-05-03T12:28:19.683Z,27.78
2023-05-03T12:30:47.788Z,27.65
2023-05-03T12:33:16.982Z,27.65
2023-05-03T12:35:47.922Z,27.65
2023-05-03T12:38:17.338Z,27.51
2023-05-03T12:40:47.594Z,27.41
2023-05-03T12:43:15.455Z,27.24
2023-05-03T12:45:46.906Z,26.98
2023-05-03T12:48:18.045Z,26.90
2023-05-03T12:50:46.060Z,26.96
2023-05-03T12:53:16.922Z,27.23
2023-05-03T12:55:50.676Z,27.16
2023-05-03T13:03:34.560Z,26.63
2023-05-03T13:06:13.370Z,26.55
2023-05-03T13:11:13.399Z,26.15
2023-05-03T13:13:41.098Z,26.18
2023-05-03T13:16:09.476Z,25.86
2023-05-03T13:18:37.518Z,25.98
2023-05-03T13:21:07.057Z,25.93
2023-05-03T13:23:34.741Z,25.83
2023-05-03T13:26:02.310Z,25.84
2023-05-03T13:28:29.830Z,25.73
2023-05-03T13:30:57.457Z,25.88
2023-05-03T13:33:26.026Z,25.81
2023-05-03T13:35:53.526Z,25.71
2023-05-03T13:38:21.124Z,25.60
2023-05-03T13:40:48.777Z,25.55
2023-05-03T13:43:16.576Z,25.65
2023-05-03T13:45:44.307Z,25.54
2023-05-03T13:48:17.751Z,25.60
2023-05-03T13:50:49.120Z,25.56
2023-05-03T13:53:16.971Z,25.40
2023-05-03T13:55:45.997Z,25.30
2023-05-03T13:58:17.338Z,25.26
2023-05-03T14:00:45.882Z,25.36
2023-05-03T14:03:13.766Z,25.36
2023-05-03T14:05:41.535Z,25.28
2023-05-03T14:08:09.307Z,25.45
2023-05-03T14:10:36.912Z,25.18
2023-05-03T14:13:04.641Z,25.03
2023-05-03T14:15:32.379Z,25.12
2023-05-03T14:18:03.683Z,25.06
2023-05-03T14:20:34.752Z,24.99
2023-05-03T14:23:04.062Z,24.85
2023-05-03T14:25:31.818Z,24.89
2023-05-03T14:27:59.450Z,24.91
2023-05-03T14:30:27.010Z,24.86
2023-05-03T14:32:54.607Z,24.71
2023-05-03T14:35:23.421Z,24.63
2023-05-03T14:37:51.020Z,24.74
2023-05-03T14:40:18.554Z,24.64
2023-05-03T14:42:46.326Z,24.59
2023-05-03T14:45:15.160Z,24.43
2023-05-03T14:47:42.967Z,24.50
2023-05-03T14:50:11.131Z,24.50
2023-05-03T14:52:38.841Z,24.48
2023-05-03T14:55:07.456Z,24.27
2023-05-03T14:57:36.644Z,24.25
2023-05-03T15:00:07.897Z,24.21
2023-05-03T15:02:35.883Z,24.20
2023-05-03T15:05:04.849Z,24.12
2023-05-03T15:07:32.884Z,24.05
2023-05-03T15:10:04.722Z,23.93
2023-05-03T15:12:33.237Z,23.93
2023-05-03T15:15:00.954Z,23.77
2023-05-03T15:17:31.304Z,23.81
2023-05-03T15:19:58.896Z,23.84
2023-05-03T15:22:26.572Z,23.74
2023-05-03T15:24:54.105Z,23.68
2023-05-03T15:27:21.569Z,23.64
2023-05-03T15:29:49.138Z,23.53
2023-05-03T15:32:16.704Z,23.40
2023-05-03T15:34:44.549Z,23.43
2023-05-03T15:37:13.321Z,23.40
2023-05-03T15:39:40.911Z,23.30
2023-05-03T15:42:09.552Z,23.42
2023-05-03T15:44:37.464Z,23.30
2023-05-03T15:47:05.005Z,23.23
2023-05-03T15:49:32.580Z,23.16
2023-05-03T15:52:00.427Z,23.18
2023-05-03T15:54:28.035Z,23.24
2023-05-03T15:56:55.583Z,23.07
2023-05-03T15:59:23.191Z,23.11
2023-05-03T16:01:51.658Z,23.06
2023-05-03T16:04:19.352Z,23.12
2023-05-03T16:06:46.923Z,23.05
2023-05-03T16:09:16.294Z,22.81
2023-05-03T16:11:43.834Z,22.81
2023-05-03T16:14:12.369Z,22.80
2023-05-03T16:16:40.597Z,22.69
2023-05-03T16:19:09.046Z,22.80
2023-05-03T16:21:36.606Z,22.66
2023-05-03T16:24:05.061Z,22.62
2023-05-03T16:26:34.741Z,22.42
2023-05-03T16:29:02.452Z,22.67
2023-05-03T16:31:31.319Z,22.81
2023-05-03T16:33:58.969Z,22.91
2023-05-03T16:36:28.337Z,23.10
2023-05-03T16:38:55.990Z,23.24
2023-05-03T16:41:24.546Z,23.48
2023-05-03T16:43:52.341Z,23.48
2023-05-03T16:46:20.607Z,23.60
2023-05-03T16:48:48.425Z,23.49
2023-05-03T16:51:21.127Z,23.36
2023-05-03T16:53:48.632Z,23.15
2023-05-03T16:56:16.594Z,23.41
2023-05-03T16:58:44.281Z,23.46
2023-05-03T17:01:12.159Z,23.30
2023-05-03T17:03:39.913Z,23.40
2023-05-03T17:06:07.961Z,23.30
2023-05-03T17:08:35.811Z,23.42
2023-05-03T17:11:08.831Z,23.24
2023-05-03T17:13:37.182Z,23.54
2023-05-03T17:16:13.369Z,23.66
2023-05-03T17:18:41.538Z,23.63
2023-05-03T17:21:10.258Z,23.50
2023-05-03T17:23:39.712Z,23.72
2023-05-03T17:26:09.789Z,23.50
2023-05-03T17:28:37.844Z,23.52
2023-05-03T17:31:09.090Z,23.40
2023-05-03T17:33:36.855Z,23.25
2023-05-03T17:36:07.679Z,23.11
2023-05-03T17:38:36.381Z,23.00
2023-05-03T17:41:06.436Z,23.30
2023-05-03T17:43:35.282Z,23.04
2023-05-03T17:46:14.679Z,23.46
2023-05-03T17:48:48.733Z,23.09
2023-05-03T17:51:16.581Z,22.71
2023-05-03T17:53:44.226Z,22.71
2023-05-03T17:56:19.269Z,22.70
2023-05-03T17:58:47.667Z,22.29
2023-05-03T18:01:16.140Z,22.53
2023-05-03T18:03:44.689Z,22.51
2023-05-03T18:06:14.001Z,22.21
2023-05-03T18:08:41.857Z,21.90
2023-05-03T18:11:09.730Z,21.67
2023-05-03T18:13:37.961Z,21.59
2023-05-03T18:16:09.804Z,21.63
2023-05-03T18:18:37.898Z,21.50
2023-05-03T18:21:05.809Z,21.38
2023-05-03T18:23:33.703Z,21.37
2023-05-03T18:26:01.321Z,21.41
2023-05-03T18:28:28.968Z,21.16
2023-05-03T18:30:56.616Z,21.51
2023-05-03T18:33:24.279Z,21.68
2023-05-03T18:35:52.976Z,21.88
2023-05-03T18:38:21.971Z,21.99
2023-05-03T18:40:50.082Z,22.06
2023-05-03T18:43:18.275Z,22.23
2023-05-03T18:45:45.950Z,22.15
2023-05-03T18:48:13.655Z,22.21
2023-05-03T18:50:44.303Z,22.20
2023-05-03T18:53:12.265Z,22.22
2023-05-03T18:55:40.303Z,22.13
2023-05-03T18:58:08.017Z,22.13
2023-05-03T19:00:35.674Z,21.95
2023-05-03T19:03:04.392Z,22.06
2023-05-03T19:05:31.947Z,22.04
2023-05-03T19:08:00.182Z,22.06
2023-05-03T19:10:27.656Z,22.04
2023-05-03T19:12:55.470Z,21.96
2023-05-03T19:15:23.581Z,21.87
2023-05-03T19:17:51.303Z,21.77
2023-05-03T19:20:19.027Z,21.67
2023-05-03T19:22:46.756Z,21.74
2023-05-03T19:25:15.194Z,21.75
2023-05-03T19:27:42.803Z,21.63
2023-05-03T19:30:10.942Z,21.52
2023-05-03T19:32:39.564Z,21.45
2023-05-03T19:35:11.228Z,21.44
2023-05-03T19:37:39.097Z,21.39
2023-05-03T19:40:07.853Z,21.25
2023-05-03T19:42:35.596Z,21.19
2023-05-03T19:45:04.410Z,21.15
2023-05-03T19:47:34.068Z,21.05
2023-05-03T19:50:02.135Z,20.98
2023-05-03T19:52:33.512Z,20.93
2023-05-03T19:55:02.707Z,20.78
2023-05-03T19:57:32.868Z,20.86
2023-05-03T20:00:00.473Z,20.83
2023-05-03T20:02:28.100Z,20.78
2023-05-03T20:04:55.800Z,20.61
2023-05-03T20:07:23.477Z,20.43
2023-05-03T20:09:51.158Z,20.42
2023-05-03T20:12:18.794Z,20.36
2023-05-03T20:14:46.481Z,20.14
2023-05-03T20:17:14.046Z,20.02
2023-05-03T20:19:41.702Z,20.02
2023-05-03T20:22:09.334Z,19.98
2023-05-03T20:24:36.872Z,20.00
2023-05-03T20:27:04.485Z,19.74
2023-05-03T20:29:32.389Z,19.75
2023-05-03T20:32:00.293Z,19.66
2023-05-03T20:34:28.357Z,19.61
2023-05-03T20:36:55.937Z,19.50
2023-05-03T20:39:23.585Z,19.46
2023-05-03T20:41:51.123Z,19.45
2023-05-03T20:44:18.759Z,19.22
2023-05-03T20:46:46.600Z,19.10
2023-05-03T20:49:14.244Z,18.99
2023-05-03T20:51:41.872Z,18.98
2023-05-03T20:54:09.383Z,19.04
2023-05-03T20:56:37.171Z,19.00
2023-05-03T20:59:05.675Z,19.00
2023-05-03T21:01:33.428Z,18.95
2023-05-03T21:04:01.025Z,18.86
2023-05-03T21:06:28.669Z,18.83
2023-05-03T21:08:56.347Z,18.84
2023-05-03T21:11:23.963Z,18.78
2023-05-03T21:13:51.582Z,18.82
2023-05-03T21:16:19.173Z,18.73
2023-05-03T21:18:46.764Z,18.63
2023-05-03T21:21:14.514Z,18.69
2023-05-03T21:23:41.994Z,18.63
2023-05-03T21:26:09.542Z,18.48
2023-05-03T21:28:37.016Z,18.45
2023-05-03T21:31:04.929Z,18.44
2023-05-03T21:33:32.902Z,18.44
2023-05-03T21:36:00.998Z,18.41
2023-05-03T21:38:28.601Z,18.25
2023-05-03T21:41:06.763Z,18.34
2023-05-03T21:43:35.727Z,18.33
2023-05-03T21:46:09.312Z,18.47
2023-05-03T21:48:37.721Z,18.70
2023-05-03T21:51:05.302Z,18.41
2023-05-03T21:53:33.681Z,18.26
2023-05-03T21:56:01.332Z,18.26
2023-05-03T21:58:28.860Z,18.29
2023-05-03T22:00:56.521Z,18.22
2023-05-03T22:03:24.204Z,18.23
2023-05-03T22:05:52.263Z,18.15
2023-05-03T22:08:20.046Z,18.04
2023-05-03T22:10:47.807Z,17.92
2023-05-03T22:13:15.572Z,17.85
2023-05-03T22:15:43.198Z,17.85
2023-05-03T22:18:10.864Z,17.85
2023-05-03T22:20:38.404Z,17.90
2023-05-03T22:23:05.969Z,17.93
2023-05-03T22:25:33.842Z,17.81
2023-05-03T22:28:01.448Z,17.76
2023-05-03T22:30:29.373Z,17.70
2023-05-03T22:32:56.935Z,17.62
2023-05-03T22:35:24.682Z,17.59
2023-05-03T22:37:52.372Z,17.59
2023-05-03T22:40:20.158Z,17.57
2023-05-03T22:42:48.589Z,17.50
2023-05-03T22:45:16.102Z,17.43
2023-05-03T22:47:43.964Z,17.37
2023-05-03T22:50:11.794Z,17.34
2023-05-03T22:52:39.349Z,17.36
2023-05-03T22:55:08.250Z,17.36
2023-05-03T22:57:35.964Z,17.19
2023-05-03T23:00:04.622Z,17.05
2023-05-03T23:02:35.277Z,16.98
2023-05-03T23:05:03.222Z,16.94
2023-05-03T23:07:31.965Z,16.90
2023-05-03T23:10:04.295Z,17.04
2023-05-03T23:12:34.588Z,16.78
2023-05-03T23:15:02.255Z,16.71
2023-05-03T23:17:32.374Z,16.52
2023-05-03T23:19:59.990Z,16.58
2023-05-03T23:22:27.793Z,16.40
2023-05-03T23:24:55.546Z,16.30
2023-05-03T23:27:23.295Z,16.13
2023-05-03T23:29:52.249Z,15.96
2023-05-03T23:32:20.797Z,15.98
2023-05-03T23:34:48.932Z,15.74
2023-05-03T23:37:16.520Z,15.67
2023-05-03T23:39:47.843Z,15.63
2023-05-03T23:42:15.492Z,15.92
2023-05-03T23:44:54.418Z,16.18
2023-05-03T23:47:23.642Z,16.47
2023-05-03T23:49:51.607Z,16.25
2023-05-03T23:52:20.746Z,16.21
2023-05-03T23:54:48.513Z,16.12
2023-05-03T23:57:16.517Z,16.01
2023-05-03T23:59:44.530Z,16.12
